createdAt,value
2023-02-06T00:01:25.348Z,85.70
2023-02-06T00:03:52.358Z,90.90
2023-02-06T00:06:19.255Z,90.00
2023-02-06T00:08:46.215Z,82.60
2023-02-06T00:11:16.871Z,85.40
2023-02-06T00:13:44.362Z,85.50
2023-02-06T00:16:18.860Z,89.20
2023-02-06T00:18:46.009Z,80.70
2023-02-06T00:21:13.216Z,84.00
2023-02-06T00:23:40.891Z,87.70
2023-02-06T00:26:08.727Z,84.50
2023-02-06T00:28:37.048Z,83.10
2023-02-06T00:31:05.689Z,83.50
2023-02-06T00:33:32.970Z,81.20
2023-02-06T00:35:59.945Z,86.50
2023-02-06T00:38:28.795Z,83.40
2023-02-06T00:40:56.381Z,81.20
2023-02-06T00:43:23.637Z,89.60
2023-02-06T00:45:55.758Z,88.40
2023-02-06T00:48:22.554Z,81.20
2023-02-06T00:50:50.819Z,87.50
2023-02-06T00:53:18.103Z,90.50
2023-02-06T00:55:45.257Z,89.50
2023-02-06T00:58:12.461Z,93.00
2023-02-06T01:00:41.813Z,87.60
2023-02-06T01:03:08.604Z,91.60
2023-02-06T01:05:36.754Z,87.10
2023-02-06T01:08:04.844Z,92.30
2023-02-06T01:10:31.809Z,92.20
2023-02-06T01:12:59.046Z,89.60
2023-02-06T01:15:25.935Z,94.80
2023-02-06T01:17:53.224Z,94.50
2023-02-06T01:20:21.655Z,88.70
2023-02-06T01:22:48.546Z,95.40
2023-02-06T01:25:15.409Z,97.30
2023-02-06T01:27:42.383Z,104.10
2023-02-06T01:30:11.658Z,98.90
2023-02-06T01:32:40.511Z,102.00
2023-02-06T01:35:09.284Z,96.20
2023-02-06T01:37:36.321Z,96.30
2023-02-06T01:40:03.385Z,93.30
2023-02-06T01:42:30.736Z,94.00
2023-02-06T01:45:34.052Z,96.40
2023-02-06T01:48:04.464Z,90.40
2023-02-06T01:50:33.866Z,100.30
2023-02-06T01:53:01.670Z,102.70
2023-02-06T01:55:29.423Z,96.20
2023-02-06T01:57:58.707Z,102.80
2023-02-06T02:00:25.900Z,97.20
2023-02-06T02:02:52.847Z,106.00
2023-02-06T02:05:22.545Z,102.70
2023-02-06T02:08:00.972Z,111.30
2023-02-06T02:10:28.568Z,105.80
2023-02-06T02:12:56.056Z,99.10
2023-02-06T02:15:26.236Z,100.20
2023-02-06T02:18:03.622Z,100.00
2023-02-06T02:20:50.320Z,105.40
2023-02-06T02:26:35.154Z,106.80
2023-02-06T02:29:24.707Z,101.60
2023-02-06T02:32:10.164Z,98.30
2023-02-06T02:34:57.730Z,98.60
2023-02-06T02:37:32.522Z,105.70
2023-02-06T02:40:07.957Z,98.20
2023-02-06T02:42:44.372Z,98.90
2023-02-06T02:45:20.546Z,102.90
2023-02-06T02:47:53.500Z,96.40
2023-02-06T02:50:22.427Z,103.20
2023-02-06T02:52:49.933Z,104.20
2023-02-06T02:55:23.480Z,102.20
2023-02-06T02:57:59.753Z,104.90
2023-02-06T03:00:28.227Z,109.20
2023-02-06T03:02:57.679Z,102.80
2023-02-06T03:05:27.187Z,105.60
2023-02-06T03:08:06.912Z,98.80
2023-02-06T03:10:40.473Z,99.10
2023-02-06T03:13:16.486Z,109.10
2023-02-06T03:15:50.106Z,101.10
2023-02-06T03:18:24.390Z,100.40
2023-02-06T03:20:52.486Z,104.60
2023-02-06T03:23:23.456Z,105.00
2023-02-06T03:25:54.571Z,109.60
2023-02-06T03:28:25.756Z,103.90
2023-02-06T03:30:58.057Z,107.00
2023-02-06T03:33:31.746Z,111.30
2023-02-06T03:35:59.520Z,107.20
2023-02-06T03:38:28.800Z,114.20
2023-02-06T03:40:58.170Z,117.80
2023-02-06T03:43:29.238Z,109.00
2023-02-06T03:46:01.288Z,112.50
2023-02-06T03:48:34.187Z,110.70
2023-02-06T03:51:04.512Z,113.60
2023-02-06T03:53:34.035Z,110.30
2023-02-06T03:56:06.898Z,107.90
2023-02-06T03:58:33.841Z,110.40
2023-02-06T04:01:01.456Z,100.40
2023-02-06T04:03:28.533Z,111.50
2023-02-06T04:05:55.467Z,115.20
2023-02-06T04:08:22.589Z,117.10
2023-02-06T04:10:49.487Z,111.80
2023-02-06T04:13:16.296Z,121.90
2023-02-06T04:15:43.389Z,127.50
2023-02-06T04:18:10.252Z,119.50
2023-02-06T04:20:40.934Z,124.20
2023-02-06T04:23:08.817Z,120.50
2023-02-06T04:25:36.288Z,114.40
2023-02-06T04:28:03.516Z,112.30
2023-02-06T04:30:30.597Z,113.60
2023-02-06T04:32:57.680Z,106.30
2023-02-06T04:35:24.491Z,105.10
2023-02-06T04:37:51.375Z,88.10
2023-02-06T04:40:18.764Z,88.20
2023-02-06T04:42:45.618Z,92.50
2023-02-06T04:45:12.931Z,110.60
2023-02-06T04:47:39.803Z,112.40
2023-02-06T04:50:07.437Z,102.30
2023-02-06T04:52:34.616Z,121.30
2023-02-06T04:55:01.470Z,96.40
2023-02-06T04:57:28.428Z,100.60
2023-02-06T04:59:55.447Z,114.60
2023-02-06T05:02:22.318Z,100.20
2023-02-06T05:04:49.523Z,109.00
2023-02-06T05:07:16.316Z,104.50
2023-02-06T05:09:43.195Z,113.90
2023-02-06T05:12:11.229Z,107.20
2023-02-06T05:14:39.690Z,96.80
2023-02-06T05:17:06.815Z,102.70
2023-02-06T05:19:33.648Z,112.00
2023-02-06T05:22:00.530Z,105.20
2023-02-06T05:24:27.374Z,113.60
2023-02-06T05:26:57.964Z,108.80
2023-02-06T05:29:24.894Z,119.80
2023-02-06T05:31:51.730Z,123.80
2023-02-06T05:34:18.526Z,119.00
2023-02-06T05:36:45.502Z,123.60
2023-02-06T05:39:12.322Z,122.60
2023-02-06T05:41:39.198Z,135.40
2023-02-06T05:44:06.532Z,124.10
2023-02-06T05:46:33.526Z,122.30
2023-02-06T05:49:01.217Z,115.70
2023-02-06T05:51:28.233Z,112.30
2023-02-06T05:53:55.407Z,116.30
2023-02-06T05:56:22.232Z,116.60
2023-02-06T05:58:49.326Z,102.30
2023-02-06T06:01:16.397Z,103.20
2023-02-06T06:03:43.221Z,98.00
2023-02-06T06:06:11.079Z,101.30
2023-02-06T06:08:38.223Z,110.10
2023-02-06T06:11:05.060Z,97.80
2023-02-06T06:13:32.445Z,96.00
2023-02-06T06:15:59.268Z,98.30
2023-02-06T06:18:26.170Z,97.10
2023-02-06T06:20:53.286Z,100.90
2023-02-06T06:23:20.312Z,97.90
2023-02-06T06:25:48.904Z,109.90
2023-02-06T06:28:16.471Z,103.70
2023-02-06T06:30:43.650Z,106.90
2023-02-06T06:33:10.866Z,94.80
2023-02-06T06:35:37.941Z,99.60
2023-02-06T06:38:04.966Z,93.20
2023-02-06T06:40:31.964Z,93.70
2023-02-06T06:42:58.920Z,91.60
2023-02-06T06:45:26.077Z,86.80
2023-02-06T06:47:53.091Z,80.10
2023-02-06T06:50:20.086Z,93.90
2023-02-06T06:52:47.040Z,79.20
2023-02-06T06:55:14.044Z,80.60
2023-02-06T06:57:41.113Z,91.80
2023-02-06T07:00:10.401Z,102.60
2023-02-06T07:02:37.381Z,100.00
2023-02-06T07:05:05.134Z,96.70
2023-02-06T07:07:32.155Z,85.70
2023-02-06T07:09:59.781Z,90.40
2023-02-06T07:12:26.871Z,90.10
2023-02-06T07:14:53.702Z,82.50
2023-02-06T07:17:20.557Z,79.00
2023-02-06T07:19:48.866Z,89.20
2023-02-06T07:22:15.834Z,91.30
2023-02-06T07:24:42.688Z,86.30
2023-02-06T07:27:09.811Z,88.70
2023-02-06T07:29:38.124Z,92.40
2023-02-06T07:32:05.665Z,90.10
2023-02-06T07:34:32.765Z,99.20
2023-02-06T07:37:00.901Z,110.10
2023-02-06T07:39:27.779Z,84.40
2023-02-06T07:41:54.575Z,90.10
2023-02-06T07:44:21.882Z,95.50
2023-02-06T07:46:49.121Z,77.00
2023-02-06T07:49:16.834Z,84.80
2023-02-06T07:51:43.879Z,88.10
2023-02-06T07:54:11.537Z,89.50
2023-02-06T07:56:38.566Z,87.40
2023-02-06T07:59:05.892Z,83.70
2023-02-06T08:01:33.174Z,91.40
2023-02-06T08:04:00.082Z,96.30
2023-02-06T08:06:27.647Z,88.70
2023-02-06T08:08:57.171Z,105.50
2023-02-06T08:11:26.175Z,83.70
2023-02-06T08:13:53.083Z,87.60
2023-02-06T08:16:22.188Z,88.50
2023-02-06T08:18:50.029Z,88.60
2023-02-06T08:21:21.008Z,86.20
2023-02-06T08:23:51.626Z,90.90
2023-02-06T08:26:19.932Z,85.10
2023-02-06T08:28:48.527Z,94.70
2023-02-06T08:31:18.046Z,92.80
2023-02-06T08:33:45.521Z,102.00
2023-02-06T08:36:14.196Z,88.90
2023-02-06T08:38:41.728Z,90.00
2023-02-06T08:41:18.723Z,93.10
2023-02-06T08:43:45.568Z,93.60
2023-02-06T08:46:12.641Z,92.30
2023-02-06T08:48:39.539Z,82.30
2023-02-06T08:51:08.908Z,93.50
2023-02-06T08:53:36.378Z,88.20
2023-02-06T08:56:05.336Z,85.40
2023-02-06T08:58:33.288Z,82.20
2023-02-06T09:01:06.632Z,80.90
2023-02-06T09:03:33.738Z,85.90
2023-02-06T09:06:10.292Z,80.90
2023-02-06T09:08:37.897Z,77.40
2023-02-06T09:11:10.150Z,81.50
2023-02-06T09:13:37.217Z,80.40
2023-02-06T09:16:04.559Z,76.40
2023-02-06T09:18:31.704Z,76.80
2023-02-06T09:21:10.338Z,75.00
2023-02-06T09:23:37.192Z,86.80
2023-02-06T09:26:04.509Z,87.10
2023-02-06T09:28:31.654Z,83.00
2023-02-06T09:30:58.670Z,82.20
2023-02-06T09:33:26.743Z,67.50
2023-02-06T09:36:03.855Z,67.90
2023-02-06T09:38:30.999Z,70.60
2023-02-06T09:40:59.940Z,69.80
2023-02-06T09:43:27.218Z,67.60
2023-02-06T09:46:00.158Z,67.50
2023-02-06T09:48:31.546Z,68.10
2023-02-06T09:51:08.963Z,62.80
2023-02-06T09:53:45.577Z,66.20
2023-02-06T09:56:21.604Z,66.40
2023-02-06T09:58:54.913Z,70.00
2023-02-06T10:01:28.229Z,63.20
2023-02-06T10:04:13.948Z,61.90
2023-02-06T10:06:46.871Z,62.70
2023-02-06T10:09:18.734Z,62.30
2023-02-06T10:11:50.624Z,61.80
2023-02-06T10:14:24.624Z,66.10
2023-02-06T10:16:54.940Z,66.20
2023-02-06T10:19:26.475Z,75.00
2023-02-06T10:22:02.858Z,66.60
2023-02-06T10:24:38.218Z,70.00
2023-02-06T10:27:14.390Z,73.20
2023-02-06T10:29:44.013Z,67.40
2023-02-06T10:32:28.044Z,70.20
2023-02-06T10:35:13.021Z,68.40
2023-02-06T10:37:59.489Z,68.80
2023-02-06T10:40:40.441Z,67.90
2023-02-06T10:43:18.347Z,62.40
2023-02-06T10:45:52.334Z,67.70
2023-02-06T10:48:29.351Z,65.70
2023-02-06T10:51:00.968Z,62.50
2023-02-06T10:53:32.025Z,69.00
2023-02-06T10:56:03.382Z,69.30
2023-02-06T10:58:36.250Z,68.00
2023-02-06T11:01:16.798Z,67.40
2023-02-06T11:03:57.074Z,68.40
2023-02-06T11:06:26.023Z,67.50
2023-02-06T11:08:53.179Z,73.80
2023-02-06T11:11:24.247Z,72.40
2023-02-06T11:13:53.815Z,79.90
2023-02-06T11:16:26.130Z,69.70
2023-02-06T11:18:55.011Z,75.10
2023-02-06T11:21:51.875Z,73.50
2023-02-06T11:24:21.397Z,69.50
2023-02-06T11:26:51.880Z,70.60
2023-02-06T11:29:21.427Z,70.60
2023-02-06T11:31:50.899Z,74.50
2023-02-06T11:34:25.895Z,78.80
2023-02-06T11:36:57.871Z,81.10
2023-02-06T11:39:30.344Z,81.60
2023-02-06T11:42:03.466Z,82.40
2023-02-06T11:44:36.758Z,81.40
2023-02-06T11:47:22.662Z,90.30
2023-02-06T11:49:49.995Z,88.90
2023-02-06T11:52:31.136Z,83.30
2023-02-06T11:55:02.154Z,98.70
2023-02-06T11:57:29.573Z,97.50
2023-02-06T11:59:58.141Z,111.80
2023-02-06T12:02:31.488Z,118.30
2023-02-06T12:05:07.979Z,125.00
2023-02-06T12:07:38.919Z,132.80
2023-02-06T12:10:16.404Z,122.80
2023-02-06T12:12:46.808Z,125.40
2023-02-06T12:15:45.610Z,126.80
2023-02-06T12:18:10.899Z,124.20
2023-02-06T12:20:44.209Z,133.20
2023-02-06T12:23:21.968Z,135.20
2023-02-06T12:25:54.269Z,133.30
2023-02-06T12:28:39.445Z,129.50
2023-02-06T12:31:12.373Z,137.00
2023-02-06T12:33:45.884Z,132.40
2023-02-06T12:36:18.828Z,130.10
2023-02-06T12:38:52.429Z,136.30
2023-02-06T12:41:33.771Z,120.80
2023-02-06T12:44:07.697Z,128.00
2023-02-06T12:46:34.963Z,130.90
2023-02-06T12:49:13.122Z,138.30
2023-02-06T12:51:46.748Z,126.10
2023-02-06T12:54:19.979Z,123.30
2023-02-06T12:56:51.034Z,122.30
2023-02-06T12:59:41.630Z,139.40
2023-02-06T13:02:26.287Z,133.50
2023-02-06T13:04:54.585Z,137.30
2023-02-06T13:11:02.835Z,141.60
2023-02-06T13:16:39.494Z,133.80
2023-02-06T13:20:33.310Z,147.40
2023-02-06T13:27:02.095Z,129.90
2023-02-06T13:32:30.179Z,144.60
2023-02-06T13:35:02.450Z,140.30
2023-02-06T13:37:37.403Z,145.30
2023-02-06T13:40:32.455Z,138.10
2023-02-06T13:43:04.072Z,142.10
2023-02-06T13:45:35.545Z,127.20
2023-02-06T13:48:38.942Z,143.20
2023-02-06T13:51:40.911Z,131.60
2023-02-06T13:54:31.917Z,133.00
2023-02-06T13:57:23.179Z,134.50
2023-02-06T13:59:55.650Z,143.30
2023-02-06T14:02:30.046Z,139.70
2023-02-06T14:04:58.300Z,146.30
2023-02-06T14:07:44.608Z,141.50
2023-02-06T14:10:35.490Z,144.70
2023-02-06T14:13:45.421Z,141.60
2023-02-06T14:16:25.762Z,144.70
2023-02-06T14:18:58.994Z,142.30
2023-02-06T14:21:38.740Z,137.70
2023-02-06T14:24:28.855Z,139.30
2023-02-06T14:27:06.322Z,138.60
2023-02-06T14:29:54.722Z,142.40
2023-02-06T14:32:40.222Z,143.90
2023-02-06T14:35:48.632Z,144.20
2023-02-06T14:38:51.364Z,151.10
2023-02-06T14:41:19.334Z,137.50
2023-02-06T14:43:49.498Z,148.20
2023-02-06T14:46:19.465Z,146.40
2023-02-06T14:48:51.869Z,150.20
2023-02-06T14:51:27.512Z,151.90
2023-02-06T14:53:57.553Z,163.60
2023-02-06T14:56:39.858Z,153.80
2023-02-06T14:59:18.780Z,162.10
2023-02-06T15:01:51.893Z,161.20
2023-02-06T15:04:24.955Z,165.20
2023-02-06T15:07:02.038Z,168.60
2023-02-06T15:09:33.033Z,167.20
2023-02-06T15:12:06.808Z,163.40
2023-02-06T15:14:37.233Z,170.60
2023-02-06T15:17:07.739Z,169.10
2023-02-06T15:19:36.913Z,174.60
2023-02-06T15:22:31.262Z,177.40
2023-02-06T15:25:14.702Z,178.80
2023-02-06T15:27:44.216Z,170.40
2023-02-06T15:30:22.420Z,175.10
2023-02-06T15:32:54.006Z,173.80
2023-02-06T15:35:27.474Z,170.90
2023-02-06T15:37:56.900Z,164.70
2023-02-06T15:40:31.550Z,162.70
2023-02-06T15:42:59.707Z,167.50
2023-02-06T15:45:34.594Z,172.10
2023-02-06T15:48:12.805Z,168.60
2023-02-06T15:50:40.553Z,173.30
2023-02-06T15:53:21.120Z,175.30
2023-02-06T15:56:13.376Z,163.20
2023-02-06T15:58:42.490Z,170.70
2023-02-06T16:01:20.341Z,176.80
2023-02-06T16:03:50.646Z,176.70
2023-02-06T16:06:19.103Z,179.00
2023-02-06T16:08:53.023Z,177.80
2023-02-06T16:11:37.690Z,179.30
2023-02-06T16:14:06.102Z,179.40
2023-02-06T16:16:33.474Z,176.60
2023-02-06T16:19:01.242Z,179.00
2023-02-06T16:21:31.016Z,174.40
2023-02-06T16:24:16.450Z,174.20
2023-02-06T16:26:48.133Z,169.10
2023-02-06T16:29:33.605Z,169.10
2023-02-06T16:32:03.269Z,177.10
2023-02-06T16:34:39.902Z,172.90
2023-02-06T16:37:12.245Z,169.00
2023-02-06T16:39:40.240Z,173.90
2023-02-06T16:42:07.238Z,171.90
2023-02-06T16:44:44.272Z,166.60
2023-02-06T16:47:15.656Z,154.60
2023-02-06T16:49:43.363Z,164.40
2023-02-06T16:52:16.832Z,143.40
2023-02-06T16:54:45.043Z,154.10
2023-02-06T16:57:18.627Z,143.00
2023-02-06T16:59:45.817Z,138.70
2023-02-06T17:02:35.885Z,151.80
2023-02-06T17:05:07.076Z,142.80
2023-02-06T17:07:42.230Z,146.00
2023-02-06T17:10:22.891Z,148.90
2023-02-06T17:13:03.334Z,146.70
2023-02-06T17:15:32.457Z,146.50
2023-02-06T17:18:00.807Z,144.20
2023-02-06T17:20:33.909Z,149.90
2023-02-06T17:23:09.028Z,151.30
2023-02-06T17:25:41.423Z,148.70
2023-02-06T17:28:13.858Z,155.60
2023-02-06T17:33:11.468Z,163.90
2023-02-06T17:35:48.341Z,166.90
2023-02-06T17:38:20.585Z,167.40
2023-02-06T17:40:50.200Z,171.50
2023-02-06T17:43:19.710Z,162.60
2023-02-06T17:45:49.402Z,164.30
2023-02-06T17:48:16.526Z,154.40
2023-02-06T17:50:43.825Z,158.70
2023-02-06T17:53:14.044Z,157.30
2023-02-06T17:55:40.973Z,158.70
2023-02-06T17:58:08.317Z,155.90
2023-02-06T18:00:35.935Z,166.10
2023-02-06T18:03:05.429Z,155.80
2023-02-06T18:05:36.518Z,150.60
2023-02-06T18:08:03.844Z,156.20
2023-02-06T18:10:30.795Z,156.90
2023-02-06T18:12:57.737Z,159.90
2023-02-06T18:15:25.031Z,170.80
2023-02-06T18:17:51.932Z,155.90
2023-02-06T18:20:19.943Z,167.50
2023-02-06T18:22:47.422Z,158.10
2023-02-06T18:25:16.111Z,160.40
2023-02-06T18:27:45.826Z,166.30
2023-02-06T18:30:15.594Z,162.70
2023-02-06T18:32:42.888Z,162.80
2023-02-06T18:35:11.192Z,156.00
2023-02-06T18:37:39.012Z,167.20
2023-02-06T18:40:07.130Z,165.30
2023-02-06T18:42:53.934Z,158.00
2023-02-06T18:45:21.877Z,158.10
2023-02-06T18:47:51.360Z,157.80
2023-02-06T18:50:20.364Z,154.70
2023-02-06T18:52:47.307Z,168.70
2023-02-06T18:55:14.297Z,162.80
2023-02-06T18:57:42.038Z,162.30
2023-02-06T19:00:12.152Z,150.00
2023-02-06T19:02:39.791Z,148.90
2023-02-06T19:05:07.148Z,139.50
2023-02-06T19:07:34.680Z,160.40
2023-02-06T19:10:03.520Z,157.70
2023-02-06T19:12:31.483Z,163.20
2023-02-06T19:15:34.363Z,154.60
2023-02-06T19:18:02.545Z,145.50
2023-02-06T19:20:29.600Z,145.30
2023-02-06T19:22:57.126Z,146.40
2023-02-06T19:25:24.611Z,154.50
2023-02-06T19:27:51.802Z,146.60
2023-02-06T19:30:39.494Z,148.70
2023-02-06T19:33:28.887Z,154.20
2023-02-06T19:36:18.364Z,149.30
2023-02-06T19:39:09.362Z,148.10
2023-02-06T19:41:36.671Z,150.10
2023-02-06T19:44:24.113Z,141.10
2023-02-06T19:55:41.353Z,142.10
2023-02-06T19:58:11.097Z,133.50
2023-02-06T20:00:39.400Z,143.00
2023-02-06T20:03:08.324Z,132.50
2023-02-06T20:05:54.869Z,135.00
2023-02-06T20:08:23.945Z,132.40
2023-02-06T20:10:51.472Z,139.10
2023-02-06T20:13:18.563Z,135.90
2023-02-06T20:15:48.257Z,134.70
2023-02-06T20:18:15.362Z,129.00
2023-02-06T20:20:47.154Z,137.10
2023-02-06T20:23:23.302Z,133.50
2023-02-06T20:25:50.651Z,126.10
2023-02-06T20:28:21.150Z,131.20
2023-02-06T20:30:48.283Z,126.00
2023-02-06T20:33:18.396Z,135.50
2023-02-06T20:38:20.602Z,138.60
2023-02-06T20:40:54.065Z,140.70
2023-02-06T20:43:21.356Z,153.90
2023-02-06T20:45:48.456Z,151.70
2023-02-06T20:48:15.484Z,148.50
2023-02-06T20:50:42.776Z,147.90
2023-02-06T20:53:19.882Z,133.70
2023-02-06T20:55:47.945Z,144.40
2023-02-06T20:58:14.914Z,151.40
2023-02-06T21:00:44.690Z,140.80
2023-02-06T21:03:14.388Z,142.30
2023-02-06T21:05:41.964Z,146.60
2023-02-06T21:08:09.393Z,152.00
2023-02-06T21:10:43.858Z,158.90
2023-02-06T21:13:14.189Z,157.40
2023-02-06T21:16:02.212Z,147.60
2023-02-06T21:18:31.854Z,152.90
2023-02-06T21:21:07.534Z,160.50
2023-02-06T21:23:38.384Z,152.50
2023-02-06T21:26:09.943Z,155.30
2023-02-06T21:28:38.057Z,151.20
2023-02-06T21:31:07.872Z,153.60
2023-02-06T21:33:38.862Z,146.30
2023-02-06T21:36:09.732Z,154.10
2023-02-06T21:38:37.476Z,144.80
2023-02-06T21:41:08.921Z,153.50
2023-02-06T21:43:36.465Z,148.00
2023-02-06T21:46:14.421Z,145.90
2023-02-06T21:48:44.410Z,144.90
2023-02-06T21:51:13.611Z,149.20
2023-02-06T21:53:43.697Z,143.30
2023-02-06T21:56:14.737Z,153.60
2023-02-06T21:58:42.256Z,142.20
2023-02-06T22:01:14.216Z,149.10
2023-02-06T22:03:41.143Z,149.20
2023-02-06T22:06:11.821Z,147.50
2023-02-06T22:08:40.191Z,142.50
2023-02-06T22:11:15.605Z,146.30
2023-02-06T22:13:44.190Z,138.30
2023-02-06T22:16:13.124Z,141.10
2023-02-06T22:18:43.525Z,144.20
2023-02-06T22:21:23.626Z,153.90
2023-02-06T22:24:01.371Z,153.50
2023-02-06T22:26:33.362Z,149.10
2023-02-06T22:29:01.666Z,160.40
2023-02-06T22:31:48.684Z,155.60
2023-02-06T22:34:19.643Z,156.80
2023-02-06T22:36:56.714Z,155.00
2023-02-06T22:39:24.322Z,149.30
2023-02-06T22:41:56.555Z,160.80
2023-02-06T22:44:24.279Z,152.10
2023-02-06T22:46:53.681Z,150.50
2023-02-06T22:49:21.523Z,149.90
2023-02-06T22:51:49.158Z,145.60
2023-02-06T22:54:26.321Z,144.90
2023-02-06T22:56:53.549Z,150.60
2023-02-06T22:59:22.738Z,142.80
2023-02-06T23:01:52.465Z,148.90
2023-02-06T23:04:21.560Z,147.50
2023-02-06T23:06:51.917Z,148.00
2023-02-06T23:09:31.644Z,147.40
2023-02-06T23:11:59.812Z,152.20
2023-02-06T23:14:38.059Z,139.30
2023-02-06T23:17:07.952Z,143.80
2023-02-06T23:19:35.347Z,145.50
2023-02-06T23:22:05.003Z,150.10
2023-02-06T23:24:32.413Z,144.20
2023-02-06T23:27:10.018Z,138.30
2023-02-06T23:29:39.426Z,144.70
2023-02-06T23:32:06.807Z,140.30
2023-02-06T23:34:39.099Z,139.80
2023-02-06T23:37:10.282Z,139.30
2023-02-06T23:39:40.872Z,135.50
2023-02-06T23:42:08.215Z,135.50
2023-02-06T23:44:46.536Z,132.50
2023-02-06T23:47:13.661Z,129.00
2023-02-06T23:49:43.643Z,133.80
2023-02-06T23:52:21.887Z,128.00
2023-02-06T23:54:49.034Z,123.40
2023-02-06T23:57:19.010Z,117.50
